createdAt,value
2023-02-12T00:01:21.302Z,8.80
2023-02-12T00:03:48.415Z,8.80
2023-02-12T00:06:16.182Z,8.80
2023-02-12T00:08:43.646Z,8.80
2023-02-12T00:11:17.125Z,8.80
2023-02-12T00:13:44.544Z,8.80
2023-02-12T00:16:14.705Z,8.80
2023-02-12T00:18:42.104Z,8.80
2023-02-12T00:21:09.366Z,8.80
2023-02-12T00:23:37.764Z,8.80
2023-02-12T00:26:09.611Z,8.80
2023-02-12T00:28:38.226Z,8.80
2023-02-12T00:31:11.427Z,8.80
2023-02-12T00:33:38.641Z,8.80
2023-02-12T00:36:08.176Z,8.80
2023-02-12T00:38:35.394Z,8.80
2023-02-12T00:41:03.811Z,8.80
2023-02-12T00:43:30.744Z,8.80
2023-02-12T00:45:58.413Z,8.80
2023-02-12T00:48:27.026Z,8.80
2023-02-12T00:50:53.966Z,8.80
2023-02-12T00:53:21.241Z,8.80
2023-02-12T00:55:48.324Z,8.80
2023-02-12T00:58:18.868Z,8.80
2023-02-12T01:00:46.592Z,8.80
2023-02-12T01:03:14.172Z,8.80
2023-02-12T01:05:41.249Z,8.80
2023-02-12T01:08:08.215Z,8.80
2023-02-12T01:10:35.235Z,8.80
2023-02-12T01:13:02.467Z,8.80
2023-02-12T01:15:29.391Z,8.80
2023-02-12T01:17:56.535Z,8.70
2023-02-12T01:20:25.942Z,8.80
2023-02-12T01:22:53.403Z,8.70
2023-02-12T01:25:21.821Z,8.80
2023-02-12T01:27:54.115Z,8.70
2023-02-12T01:30:24.173Z,8.70
2023-02-12T01:32:51.769Z,8.70
2023-02-12T01:35:18.987Z,8.80
2023-02-12T01:37:45.917Z,8.70
2023-02-12T01:40:17.686Z,8.80
2023-02-12T01:42:46.074Z,8.70
2023-02-12T01:45:13.163Z,8.70
2023-02-12T01:47:41.842Z,8.80
2023-02-12T01:50:12.924Z,8.80
2023-02-12T01:52:43.509Z,8.70
2023-02-12T01:55:11.709Z,8.80
2023-02-12T01:57:42.752Z,8.70
2023-02-12T02:00:16.967Z,8.80
2023-02-12T02:02:49.083Z,8.70
2023-02-12T02:05:23.669Z,8.70
2023-02-12T02:07:50.774Z,8.70
2023-02-12T02:10:17.769Z,8.70
2023-02-12T02:13:03.356Z,8.80
2023-02-12T02:15:31.780Z,8.70
2023-02-12T02:18:44.874Z,8.70
2023-02-12T02:21:36.605Z,8.70
2023-02-12T02:24:28.277Z,8.70
2023-02-12T02:27:03.236Z,8.70
2023-02-12T02:29:39.345Z,8.70
2023-02-12T02:32:28.392Z,8.70
2023-02-12T02:35:11.418Z,8.70
2023-02-12T02:37:54.688Z,8.70
2023-02-12T02:40:24.772Z,8.70
2023-02-12T02:43:00.992Z,8.70
2023-02-12T02:45:36.677Z,8.70
2023-02-12T02:48:27.550Z,8.70
2023-02-12T02:51:04.245Z,8.70
2023-02-12T02:53:46.462Z,8.60
2023-02-12T02:56:17.972Z,8.70
2023-02-12T02:58:53.051Z,8.70
2023-02-12T03:01:32.868Z,8.60
2023-02-12T03:04:05.520Z,8.60
2023-02-12T03:06:54.720Z,8.60
2023-02-12T03:09:50.735Z,8.60
2023-02-12T03:12:38.746Z,8.60
2023-02-12T03:15:11.801Z,8.60
2023-02-12T03:17:43.166Z,8.60
2023-02-12T03:20:21.048Z,8.60
2023-02-12T03:22:53.892Z,8.60
2023-02-12T03:25:48.374Z,8.60
2023-02-12T03:28:24.458Z,8.60
2023-02-12T03:31:19.076Z,8.60
2023-02-12T03:34:11.102Z,8.60
2023-02-12T03:36:45.997Z,8.60
2023-02-12T03:39:34.367Z,8.60
2023-02-12T03:42:15.748Z,8.60
2023-02-12T03:44:53.355Z,8.60
2023-02-12T03:47:35.873Z,8.60
2023-02-12T03:50:15.030Z,8.60
2023-02-12T03:52:43.496Z,8.60
2023-02-12T03:55:11.583Z,8.60
2023-02-12T03:57:45.453Z,8.60
2023-02-12T04:00:20.679Z,8.60
2023-02-12T04:02:48.042Z,8.60
2023-02-12T04:05:24.572Z,8.60
2023-02-12T04:07:53.409Z,8.60
2023-02-12T04:10:27.433Z,8.60
2023-02-12T04:13:11.519Z,8.60
2023-02-12T04:16:03.246Z,8.50
2023-02-12T04:18:43.064Z,8.60
2023-02-12T04:21:18.646Z,8.60
2023-02-12T04:24:07.148Z,8.60
2023-02-12T04:26:57.395Z,8.60
2023-02-12T04:29:51.475Z,8.60
2023-02-12T04:32:50.359Z,8.60
2023-02-12T04:35:40.185Z,8.60
2023-02-12T04:38:26.735Z,8.60
2023-02-12T04:40:54.079Z,8.60
2023-02-12T04:43:29.413Z,8.60
2023-02-12T04:45:56.840Z,8.60
2023-02-12T04:48:24.177Z,8.60
2023-02-12T04:50:51.372Z,8.60
2023-02-12T04:53:18.804Z,8.50
2023-02-12T04:55:47.515Z,8.60
2023-02-12T04:58:14.417Z,8.50
2023-02-12T05:00:41.427Z,8.50
2023-02-12T05:03:08.413Z,8.50
2023-02-12T05:05:35.448Z,8.50
2023-02-12T05:08:02.456Z,8.50
2023-02-12T05:10:29.457Z,8.50
2023-02-12T05:12:56.406Z,8.50
2023-02-12T05:15:23.567Z,8.50
2023-02-12T05:17:50.541Z,8.50
2023-02-12T05:20:17.721Z,8.50
2023-02-12T05:22:44.736Z,8.50
2023-02-12T05:25:11.889Z,8.60
2023-02-12T05:27:38.965Z,8.50
2023-02-12T05:30:06.738Z,8.60
2023-02-12T05:32:33.851Z,8.60
2023-02-12T05:35:00.724Z,8.60
2023-02-12T05:37:27.835Z,8.50
2023-02-12T05:39:54.864Z,8.60
2023-02-12T05:42:21.834Z,8.60
2023-02-12T05:44:48.836Z,8.60
2023-02-12T05:47:15.785Z,8.60
2023-02-12T05:49:42.963Z,8.60
2023-02-12T05:52:10.029Z,8.60
2023-02-12T05:54:36.993Z,8.60
2023-02-12T05:57:04.000Z,8.60
2023-02-12T05:59:31.036Z,8.60
2023-02-12T06:01:58.160Z,8.60
2023-02-12T06:04:27.396Z,8.60
2023-02-12T06:06:56.049Z,8.60
2023-02-12T06:09:23.783Z,8.60
2023-02-12T06:11:50.700Z,8.60
2023-02-12T06:14:19.594Z,8.60
2023-02-12T06:16:50.927Z,8.60
2023-02-12T06:19:19.171Z,8.60
2023-02-12T06:21:46.843Z,8.60
2023-02-12T06:24:15.719Z,8.60
2023-02-12T06:26:43.101Z,8.60
2023-02-12T06:29:10.139Z,8.60
2023-02-12T06:31:37.864Z,8.60
2023-02-12T06:34:07.574Z,8.60
2023-02-12T06:36:36.932Z,8.60
2023-02-12T06:39:04.294Z,8.60
2023-02-12T06:41:31.363Z,8.60
2023-02-12T06:43:58.504Z,8.60
2023-02-12T06:46:26.080Z,8.60
2023-02-12T06:48:55.072Z,8.60
2023-02-12T06:51:25.636Z,8.60
2023-02-12T06:53:54.043Z,8.60
2023-02-12T06:56:22.650Z,8.60
2023-02-12T06:58:55.163Z,8.60
2023-02-12T07:01:24.915Z,8.60
2023-02-12T07:04:00.632Z,8.60
2023-02-12T07:06:28.944Z,8.60
2023-02-12T07:08:56.569Z,8.60
2023-02-12T07:11:33.968Z,8.60
2023-02-12T07:14:02.586Z,8.60
2023-02-12T07:16:29.882Z,8.70
2023-02-12T07:18:57.073Z,8.60
2023-02-12T07:21:24.021Z,8.70
2023-02-12T07:23:53.023Z,8.70
2023-02-12T07:26:21.920Z,8.70
2023-02-12T07:28:50.244Z,8.70
2023-02-12T07:31:20.159Z,8.70
2023-02-12T07:33:47.774Z,8.70
2023-02-12T07:36:18.454Z,8.70
2023-02-12T07:38:45.660Z,8.70
2023-02-12T07:41:18.511Z,8.70
2023-02-12T07:43:47.238Z,8.80
2023-02-12T07:46:19.738Z,8.80
2023-02-12T07:48:47.593Z,8.80
2023-02-12T07:51:19.284Z,8.80
2023-02-12T07:53:46.691Z,8.80
2023-02-12T07:56:15.345Z,8.90
2023-02-12T07:58:47.250Z,8.90
2023-02-12T08:01:27.070Z,8.90
2023-02-12T08:03:54.958Z,8.90
2023-02-12T08:06:25.440Z,8.90
2023-02-12T08:08:57.757Z,8.90
2023-02-12T08:11:26.359Z,9.00
2023-02-12T08:13:53.651Z,9.00
2023-02-12T08:16:23.432Z,9.00
2023-02-12T08:18:50.675Z,9.00
2023-02-12T08:21:26.426Z,9.00
2023-02-12T08:23:58.540Z,9.10
2023-02-12T08:26:34.584Z,9.10
2023-02-12T08:29:05.996Z,9.10
2023-02-12T08:31:36.013Z,9.10
2023-02-12T08:34:03.968Z,9.10
2023-02-12T08:36:37.714Z,9.10
2023-02-12T08:39:05.570Z,9.10
2023-02-12T08:41:33.007Z,9.10
2023-02-12T08:44:03.252Z,9.10
2023-02-12T08:46:35.639Z,9.20
2023-02-12T08:49:11.850Z,9.20
2023-02-12T08:51:41.879Z,9.20
2023-02-12T08:54:13.821Z,9.20
2023-02-12T08:56:41.510Z,9.20
2023-02-12T08:59:09.202Z,9.20
2023-02-12T09:01:38.737Z,9.20
2023-02-12T09:04:06.501Z,9.20
2023-02-12T09:06:36.627Z,9.20
2023-02-12T09:09:04.096Z,9.20
2023-02-12T09:11:31.410Z,9.20
2023-02-12T09:14:00.901Z,9.20
2023-02-12T09:16:29.322Z,9.20
2023-02-12T09:18:56.452Z,9.20
2023-02-12T09:21:23.814Z,9.20
2023-02-12T09:23:51.628Z,9.30
2023-02-12T09:26:25.350Z,9.30
2023-02-12T09:28:52.764Z,9.30
2023-02-12T09:31:31.235Z,9.30
2023-02-12T09:34:00.959Z,9.30
2023-02-12T09:36:28.718Z,9.40
2023-02-12T09:38:57.523Z,9.40
2023-02-12T09:41:42.708Z,9.40
2023-02-12T09:44:26.084Z,9.40
2023-02-12T09:47:14.957Z,9.40
2023-02-12T09:50:10.701Z,9.40
2023-02-12T09:52:38.311Z,9.40
2023-02-12T09:55:06.209Z,9.40
2023-02-12T09:57:38.068Z,9.40
2023-02-12T10:00:28.116Z,9.50
2023-02-12T10:02:56.226Z,9.50
2023-02-12T10:05:28.864Z,9.50
2023-02-12T10:07:55.861Z,9.50
2023-02-12T10:10:53.163Z,9.50
2023-02-12T10:13:25.956Z,9.50
2023-02-12T10:15:57.070Z,9.50
2023-02-12T10:18:24.352Z,9.60
2023-02-12T10:21:03.210Z,9.60
2023-02-12T10:23:58.831Z,9.60
2023-02-12T10:26:38.092Z,9.60
2023-02-12T10:29:13.647Z,9.70
2023-02-12T10:31:45.781Z,9.70
2023-02-12T10:34:23.078Z,9.70
2023-02-12T10:36:54.260Z,9.80
2023-02-12T10:39:37.675Z,9.80
2023-02-12T10:42:18.025Z,9.80
2023-02-12T10:44:45.166Z,9.80
2023-02-12T10:47:21.793Z,9.90
2023-02-12T10:49:58.083Z,9.90
2023-02-12T10:52:45.150Z,9.90
2023-02-12T10:55:36.981Z,10.00
2023-02-12T10:58:05.874Z,10.00
2023-02-12T11:00:35.448Z,10.10
2023-02-12T11:03:03.016Z,10.10
2023-02-12T11:05:33.327Z,10.20
2023-02-12T11:08:00.885Z,10.30
2023-02-12T11:10:39.481Z,10.30
2023-02-12T11:13:17.253Z,10.30
2023-02-12T11:15:49.497Z,10.40
2023-02-12T11:18:34.230Z,10.40
2023-02-12T11:21:07.674Z,10.50
2023-02-12T11:23:39.535Z,10.50
2023-02-12T11:26:08.182Z,10.50
2023-02-12T11:28:38.457Z,10.60
2023-02-12T11:31:23.240Z,10.60
2023-02-12T11:34:12.294Z,10.60
2023-02-12T11:36:46.788Z,10.70
2023-02-12T11:39:24.940Z,10.70
2023-02-12T11:41:58.420Z,10.70
2023-02-12T11:44:26.811Z,10.70
2023-02-12T11:47:02.235Z,10.70
2023-02-12T11:49:32.715Z,10.70
2023-02-12T11:52:02.747Z,10.70
2023-02-12T11:54:34.387Z,10.70
2023-02-12T11:57:01.330Z,10.70
2023-02-12T11:59:36.658Z,10.70
2023-02-12T12:02:28.519Z,10.70
2023-02-12T12:05:06.732Z,10.70
2023-02-12T12:07:37.505Z,10.70
2023-02-12T12:10:20.200Z,10.70
2023-02-12T12:13:02.164Z,10.70
2023-02-12T12:16:10.482Z,10.70
2023-02-12T12:19:05.287Z,10.70
2023-02-12T12:21:51.576Z,10.70
2023-02-12T12:24:45.360Z,10.70
2023-02-12T12:27:40.160Z,10.60
2023-02-12T12:30:18.536Z,10.60
2023-02-12T12:32:48.966Z,10.60
2023-02-12T12:35:21.711Z,10.60
2023-02-12T12:38:01.846Z,10.60
2023-02-12T12:40:46.993Z,10.60
2023-02-12T12:43:36.143Z,10.50
2023-02-12T12:46:28.699Z,10.50
2023-02-12T12:49:12.467Z,10.50
2023-02-12T12:52:11.531Z,10.50
2023-02-12T12:55:06.698Z,10.50
2023-02-12T12:57:48.126Z,10.50
2023-02-12T13:00:51.934Z,10.40
2023-02-12T13:03:46.411Z,10.40
2023-02-12T13:06:35.278Z,10.40
2023-02-12T13:09:23.511Z,10.40
2023-02-12T13:12:15.105Z,10.30
2023-02-12T13:15:02.159Z,10.30
2023-02-12T13:17:51.726Z,10.30
2023-02-12T13:20:23.073Z,10.30
2023-02-12T13:23:19.935Z,10.30
2023-02-12T13:25:46.905Z,10.30
2023-02-12T13:28:22.891Z,10.40
2023-02-12T13:30:50.918Z,10.40
2023-02-12T13:33:26.042Z,10.40
2023-02-12T13:35:59.365Z,10.40
2023-02-12T13:38:31.162Z,10.40
2023-02-12T13:41:05.847Z,10.40
2023-02-12T13:43:44.927Z,10.40
2023-02-12T13:46:20.268Z,10.50
2023-02-12T13:48:52.942Z,10.50
2023-02-12T13:51:43.186Z,10.50
2023-02-12T13:54:13.457Z,10.50
2023-02-12T13:56:47.099Z,10.60
2023-02-12T13:59:32.940Z,10.60
2023-02-12T14:02:23.434Z,10.60
2023-02-12T14:05:21.182Z,10.60
2023-02-12T14:07:52.389Z,10.60
2023-02-12T14:10:42.131Z,10.60
2023-02-12T14:13:11.720Z,10.60
2023-02-12T14:15:45.563Z,10.60
2023-02-12T14:18:30.150Z,10.60
2023-02-12T14:21:10.274Z,10.60
2023-02-12T14:23:42.388Z,10.60
2023-02-12T14:26:15.721Z,10.50
2023-02-12T14:29:02.026Z,10.50
2023-02-12T14:31:37.433Z,10.50
2023-02-12T14:34:07.838Z,10.50
2023-02-12T14:36:39.029Z,10.50
2023-02-12T14:39:29.429Z,10.40
2023-02-12T14:42:16.407Z,10.40
2023-02-12T14:44:44.619Z,10.40
2023-02-12T14:47:30.185Z,10.40
2023-02-12T14:50:07.367Z,10.40
2023-02-12T14:52:41.094Z,10.40
2023-02-12T14:55:30.360Z,10.40
2023-02-12T14:58:00.416Z,10.40
2023-02-12T15:00:35.540Z,10.40
2023-02-12T15:03:15.243Z,10.40
2023-02-12T15:05:49.481Z,10.40
2023-02-12T15:08:45.163Z,10.40
2023-02-12T15:11:28.322Z,10.40
2023-02-12T15:14:22.170Z,10.40
2023-02-12T15:17:10.223Z,10.40
2023-02-12T15:19:59.952Z,10.40
2023-02-12T15:22:40.339Z,10.40
2023-02-12T15:25:27.305Z,10.40
2023-02-12T15:27:57.555Z,10.40
2023-02-12T15:30:28.074Z,10.40
2023-02-12T15:33:01.732Z,10.40
2023-02-12T15:35:31.828Z,10.40
2023-02-12T15:38:03.517Z,10.40
2023-02-12T15:40:31.727Z,10.40
2023-02-12T15:43:04.640Z,10.40
2023-02-12T15:45:36.464Z,10.40
2023-02-12T15:48:09.700Z,10.40
2023-02-12T15:50:51.612Z,10.40
2023-02-12T15:53:19.376Z,10.40
2023-02-12T15:55:48.627Z,10.40
2023-02-12T15:58:26.224Z,10.30
2023-02-12T16:00:55.071Z,10.30
2023-02-12T16:03:30.334Z,10.30
2023-02-12T16:06:06.218Z,10.30
2023-02-12T16:08:34.098Z,10.30
2023-02-12T16:11:13.808Z,10.30
2023-02-12T16:13:48.496Z,10.30
2023-02-12T16:16:15.474Z,10.30
2023-02-12T16:18:43.545Z,10.30
2023-02-12T16:21:20.692Z,10.20
2023-02-12T16:23:50.355Z,10.20
2023-02-12T16:26:23.734Z,10.20
2023-02-12T16:28:54.320Z,10.20
2023-02-12T16:31:24.702Z,10.20
2023-02-12T16:33:57.752Z,10.20
2023-02-12T16:36:25.002Z,10.20
2023-02-12T16:39:32.270Z,10.20
2023-02-12T16:41:59.257Z,10.20
2023-02-12T16:44:29.581Z,10.20
2023-02-12T16:47:00.139Z,10.20
2023-02-12T16:49:27.886Z,10.20
2023-02-12T16:52:26.583Z,10.20
2023-02-12T16:54:53.594Z,10.10
2023-02-12T16:57:20.725Z,10.10
2023-02-12T16:59:47.748Z,10.10
2023-02-12T17:02:16.366Z,10.10
2023-02-12T17:04:43.472Z,10.10
2023-02-12T17:07:24.094Z,10.10
2023-02-12T17:09:51.351Z,10.10
2023-02-12T17:12:18.472Z,10.10
2023-02-12T17:14:45.592Z,10.10
2023-02-12T17:17:12.836Z,10.10
2023-02-12T17:19:40.013Z,10.10
2023-02-12T17:22:15.235Z,10.10
2023-02-12T17:24:42.269Z,10.10
2023-02-12T17:27:11.665Z,10.10
2023-02-12T17:29:39.864Z,10.10
2023-02-12T17:32:09.343Z,10.10
2023-02-12T17:34:48.103Z,10.10
2023-02-12T17:37:15.940Z,10.10
2023-02-12T17:39:43.437Z,10.00
2023-02-12T17:42:11.619Z,10.00
2023-02-12T17:44:40.111Z,10.00
2023-02-12T17:47:08.182Z,10.00
2023-02-12T17:49:35.669Z,10.00
2023-02-12T17:52:04.770Z,10.10
2023-02-12T17:54:33.472Z,10.00
2023-02-12T17:57:00.444Z,10.10
2023-02-12T17:59:27.555Z,10.00
2023-02-12T18:01:54.724Z,10.00
2023-02-12T18:04:22.038Z,10.00
2023-02-12T18:06:48.997Z,10.00
2023-02-12T18:09:16.018Z,10.00
2023-02-12T18:11:43.087Z,10.10
2023-02-12T18:14:11.386Z,10.10
2023-02-12T18:16:38.429Z,10.00
2023-02-12T18:19:05.919Z,10.00
2023-02-12T18:21:34.990Z,10.00
2023-02-12T18:24:02.287Z,10.00
2023-02-12T18:26:29.873Z,10.00
2023-02-12T18:28:58.591Z,10.00
2023-02-12T18:31:26.414Z,10.00
2023-02-12T18:33:54.840Z,10.00
2023-02-12T18:36:22.783Z,10.00
2023-02-12T18:38:51.556Z,10.00
2023-02-12T18:41:26.987Z,10.00
2023-02-12T18:43:54.880Z,10.00
2023-02-12T18:46:24.741Z,9.90
2023-02-12T18:48:52.548Z,9.90
2023-02-12T18:51:22.997Z,10.00
2023-02-12T18:54:01.476Z,9.90
2023-02-12T18:56:30.049Z,9.90
2023-02-12T18:59:02.452Z,9.90
2023-02-12T19:01:29.617Z,9.90
2023-02-12T19:04:00.927Z,9.90
2023-02-12T19:06:30.092Z,9.90
2023-02-12T19:08:58.718Z,9.90
2023-02-12T19:11:26.759Z,9.90
2023-02-12T19:13:54.281Z,9.90
2023-02-12T19:16:23.743Z,9.90
2023-02-12T19:18:54.764Z,9.90
2023-02-12T19:21:26.177Z,9.90
2023-02-12T19:23:59.324Z,9.90
2023-02-12T19:26:28.976Z,9.90
2023-02-12T19:28:57.428Z,9.90
2023-02-12T19:31:30.552Z,9.80
2023-02-12T19:34:01.403Z,9.80
2023-02-12T19:36:30.802Z,9.80
2023-02-12T19:38:57.839Z,9.80
2023-02-12T19:41:26.979Z,9.80
2023-02-12T19:43:59.789Z,9.80
2023-02-12T19:46:29.645Z,9.80
2023-02-12T19:48:59.629Z,9.70
2023-02-12T19:51:27.782Z,9.70
2023-02-12T19:53:56.236Z,9.70
2023-02-12T19:56:23.291Z,9.70
2023-02-12T19:58:50.299Z,9.70
2023-02-12T20:01:19.361Z,9.70
2023-02-12T20:03:48.379Z,9.70
2023-02-12T20:06:23.025Z,9.70
2023-02-12T20:08:51.172Z,9.60
2023-02-12T20:11:21.212Z,9.60
2023-02-12T20:13:48.377Z,9.60
2023-02-12T20:16:21.729Z,9.60
2023-02-12T20:18:51.444Z,9.60
2023-02-12T20:21:21.807Z,9.60
2023-02-12T20:23:49.460Z,9.50
2023-02-12T20:26:17.757Z,9.50
2023-02-12T20:28:44.787Z,9.50
2023-02-12T20:31:15.397Z,9.50
2023-02-12T20:33:42.633Z,9.50
2023-02-12T20:36:12.100Z,9.40
2023-02-12T20:38:40.970Z,9.40
2023-02-12T20:41:09.860Z,9.40
2023-02-12T20:43:37.602Z,9.30
2023-02-12T20:46:07.047Z,9.30
2023-02-12T20:48:34.452Z,9.30
2023-02-12T20:51:05.883Z,9.30
2023-02-12T20:53:35.704Z,9.20
2023-02-12T20:56:08.840Z,9.20
2023-02-12T20:58:36.022Z,9.20
2023-02-12T21:01:24.636Z,9.20
2023-02-12T21:03:53.858Z,9.20
2023-02-12T21:06:22.195Z,9.20
2023-02-12T21:08:51.389Z,9.20
2023-02-12T21:11:24.207Z,9.10
2023-02-12T21:14:02.247Z,9.10
2023-02-12T21:16:33.276Z,9.10
2023-02-12T21:19:00.809Z,9.10
2023-02-12T21:21:39.507Z,9.10
2023-02-12T21:24:08.984Z,9.10
2023-02-12T21:26:36.404Z,9.10
2023-02-12T21:29:03.981Z,9.10
2023-02-12T21:31:33.346Z,9.00
2023-02-12T21:34:02.000Z,9.00
2023-02-12T21:36:31.677Z,9.00
2023-02-12T21:38:59.115Z,9.00
2023-02-12T21:41:31.557Z,9.00
2023-02-12T21:44:01.467Z,9.00
2023-02-12T21:46:29.968Z,9.00
2023-02-12T21:48:58.578Z,9.00
2023-02-12T21:51:33.066Z,9.00
2023-02-12T21:54:02.566Z,9.10
2023-02-12T21:56:29.655Z,9.10
2023-02-12T21:58:58.557Z,9.10
2023-02-12T22:01:29.883Z,9.10
2023-02-12T22:03:56.985Z,9.10
2023-02-12T22:06:25.070Z,9.10
2023-02-12T22:08:53.906Z,9.10
2023-02-12T22:11:22.068Z,9.10
2023-02-12T22:13:49.622Z,9.10
2023-02-12T22:16:27.436Z,9.10
2023-02-12T22:18:57.325Z,9.10
2023-02-12T22:21:26.397Z,9.10
2023-02-12T22:23:54.468Z,9.10
2023-02-12T22:26:24.091Z,9.10
2023-02-12T22:28:56.446Z,9.10
2023-02-12T22:31:26.468Z,9.10
2023-02-12T22:33:58.971Z,9.10
2023-02-12T22:36:27.263Z,9.10
2023-02-12T22:38:57.428Z,9.10
2023-02-12T22:41:25.115Z,9.10
2023-02-12T22:43:52.171Z,9.10
2023-02-12T22:46:19.982Z,9.10
2023-02-12T22:48:47.474Z,9.10
2023-02-12T22:51:25.070Z,9.10
2023-02-12T22:53:53.283Z,9.10
2023-02-12T22:56:20.597Z,9.10
2023-02-12T22:58:48.117Z,9.10
2023-02-12T23:01:17.613Z,9.10
2023-02-12T23:03:45.582Z,9.10
2023-02-12T23:06:15.558Z,9.10
2023-02-12T23:08:43.446Z,9.10
2023-02-12T23:11:11.103Z,9.10
2023-02-12T23:13:38.395Z,9.10
2023-02-12T23:16:06.109Z,9.10
2023-02-12T23:18:33.512Z,9.10
2023-02-12T23:21:01.261Z,9.10
2023-02-12T23:23:28.802Z,9.10
2023-02-12T23:25:56.049Z,9.10
2023-02-12T23:28:23.656Z,9.20
2023-02-12T23:30:52.136Z,9.20
2023-02-12T23:33:20.344Z,9.20
2023-02-12T23:35:48.603Z,9.20
2023-02-12T23:38:16.175Z,9.20
2023-02-12T23:40:43.703Z,9.20
2023-02-12T23:43:10.933Z,9.20
2023-02-12T23:45:37.905Z,9.20
2023-02-12T23:48:05.176Z,9.20
2023-02-12T23:50:32.308Z,9.30
2023-02-12T23:52:59.815Z,9.30
2023-02-12T23:55:27.021Z,9.30
2023-02-12T23:57:54.188Z,9.30
